Time;durP1;ratioP1;P1;durP2;ratioP2;P2;SDS_P1;SDS_P2;PMS_P1;PMS_P2;Temp;Humidity;BMP_temperature;BMP_pressure;BME280_temperature;BME280_humidity;BME280_pressure;Samples;Min_cycle;Max_cycle;Signal;HPM_P1;HPM_P2
2021/09/09 00:02:41;;;;;;;10.30;8.63;;;11.60;99.90;;;12.16;100.00;94912.00;2136198;58;26949;-61
2021/09/09 00:05:27;;;;;;;9.83;8.67;;;11.60;99.90;;;12.12;100.00;94916.00;2142196;57;26693;-61
2021/09/09 00:08:13;;;;;;;8.93;8.03;;;11.50;99.90;;;12.11;100.00;94917.00;2344735;57;26647;-60
2021/09/09 00:11:00;;;;;;;11.13;8.37;;;11.50;99.90;;;12.05;100.00;94913.00;2137962;57;26785;-60
2021/09/09 00:16:43;;;;;;;9.87;8.23;;;11.30;99.90;;;11.98;100.00;94902.00;2396849;55;34171;-61
2021/09/09 00:22:26;;;;;;;9.40;8.17;;;11.30;99.90;;;11.97;100.00;94905.00;2391710;55;33700;-60
2021/09/09 00:28:10;;;;;;;9.40;8.20;;;11.10;99.90;;;11.77;100.00;94900.00;2431931;53;33148;-60
2021/09/09 00:30:56;;;;;;;9.37;8.20;;;11.10;99.90;;;11.68;100.00;94912.00;2212865;54;27319;-61
2021/09/09 00:33:44;;;;;;;9.80;8.80;;;11.20;99.90;;;11.77;100.00;94915.00;2441906;54;26755;-60
2021/09/09 00:39:28;;;;;;;8.87;7.97;;;11.30;99.90;;;11.97;100.00;94908.00;2311613;56;34031;-61
2021/09/09 00:42:15;;;;;;;9.67;8.67;;;11.30;99.90;;;11.94;100.00;94917.00;2103702;58;26622;-61
2021/09/09 00:45:02;;;;;;;8.20;7.13;;;11.20;99.90;;;11.84;100.00;94924.00;2309896;57;26293;-60
2021/09/09 00:47:48;;;;;;;10.67;8.17;;;11.20;99.90;;;11.68;100.00;94911.00;2112416;58;26735;-60
2021/09/09 00:50:35;;;;;;;8.97;8.07;;;11.20;99.90;;;11.63;100.00;94920.00;2125749;59;26680;-60
2021/09/09 00:56:20;;;;;;;11.50;8.37;;;11.10;99.90;;;11.79;100.00;94913.00;2345501;56;34394;-60
2021/09/09 00:59:07;;;;;;;10.00;7.70;;;11.00;99.90;;;11.50;100.00;94920.00;2112954;57;26833;-60
2021/09/09 01:01:53;;;;;;;10.53;8.63;;;10.90;99.90;;;11.40;100.00;94927.00;2314427;57;26153;-60
2021/09/09 01:04:39;;;;;;;9.60;7.77;;;10.90;99.90;;;11.33;100.00;94917.00;2112349;57;26357;-60
2021/09/09 01:07:26;;;;;;;10.03;8.33;;;10.80;99.90;;;11.35;100.00;94915.00;2336276;57;27721;-60
2021/09/09 01:13:11;;;;;;;9.17;8.23;;;10.90;99.90;;;11.45;100.00;94916.00;2383419;55;34693;-61
2021/09/09 01:15:57;;;;;;;11.47;8.43;;;10.80;99.90;;;11.31;100.00;94919.00;2157310;57;26783;-60
2021/09/09 01:18:44;;;;;;;9.43;7.80;;;10.70;99.90;;;11.27;100.00;94929.00;2337840;57;26802;-60
2021/09/09 01:24:26;;;;;;;8.70;7.80;;;10.60;99.90;;;11.25;100.00;94919.00;2386296;55;34871;-60
2021/09/09 01:27:16;;;;;;;8.83;7.47;;;10.70;99.90;;;11.30;100.00;94937.00;2155112;56;26165;-60
2021/09/09 01:30:04;;;;;;;9.47;8.47;;;10.70;99.90;;;11.32;100.00;94931.00;2147293;56;27224;-60
2021/09/09 01:32:51;;;;;;;10.87;8.20;;;10.70;99.90;;;11.24;100.00;94933.00;2373386;56;26651;-60
2021/09/09 01:35:37;;;;;;;8.87;7.40;;;10.70;99.90;;;11.20;100.00;94928.00;2161216;56;26742;-60
2021/09/09 01:38:24;;;;;;;10.23;7.80;;;10.60;99.90;;;11.14;100.00;94927.00;2371978;56;27024;-60
2021/09/09 01:41:11;;;;;;;9.20;7.83;;;10.60;99.90;;;11.16;100.00;94938.00;2162758;56;26144;-61
2021/09/09 01:43:57;;;;;;;10.83;8.00;;;10.60;99.90;;;11.15;100.00;94937.00;2162031;56;27042;-60
2021/09/09 01:46:44;;;;;;;9.83;7.60;;;10.50;99.90;;;11.10;100.00;94939.00;2161205;56;26729;-60
2021/09/09 01:49:30;;;;;;;8.20;7.20;;;10.50;99.90;;;11.03;100.00;94927.00;2161532;56;27357;-61
2021/09/09 01:52:17;;;;;;;9.60;8.00;;;10.50;99.90;;;10.96;100.00;94937.00;2374302;56;26741;-60
2021/09/09 01:55:04;;;;;;;8.87;7.87;;;10.40;99.90;;;10.98;100.00;94941.00;2161385;56;26655;-60
2021/09/09 01:57:51;;;;;;;9.97;8.00;;;10.50;99.90;;;11.07;100.00;94941.00;2373858;56;26878;-60
2021/09/09 02:00:37;;;;;;;8.20;7.00;;;10.50;99.90;;;11.04;100.00;94934.00;2164532;56;26779;-60
2021/09/09 02:03:24;;;;;;;10.03;8.00;;;10.40;99.90;;;10.97;100.00;94938.00;2402091;56;26025;-60
2021/09/09 02:06:11;;;;;;;10.67;8.00;;;10.40;99.90;;;10.99;100.00;94944.00;2183554;56;27254;-60
2021/09/09 02:08:57;;;;;;;9.53;8.03;;;10.30;99.90;;;10.83;100.00;94937.00;2184375;56;26688;-60
2021/09/09 02:11:43;;;;;;;10.33;7.83;;;10.30;99.90;;;10.86;100.00;94933.00;2186738;56;26692;-60
2021/09/09 02:17:26;;;;;;;9.10;7.90;;;10.40;99.90;;;10.89;100.00;94930.00;2410380;54;33861;-61
2021/09/09 02:23:09;;;;;;;10.70;9.13;;;10.30;99.90;;;10.69;100.00;94926.00;2416453;53;33751;-61
2021/09/09 02:25:55;;;;;;;11.50;8.87;;;10.10;99.90;;;10.50;100.00;94942.00;2152477;56;26699;-60
2021/09/09 02:28:41;;;;;;;11.23;9.13;;;10.10;99.90;;;10.57;100.00;94951.00;2364544;56;26123;-60
2021/09/09 02:31:28;;;;;;;10.17;8.97;;;10.10;99.90;;;10.55;100.00;94950.00;2177593;55;26704;-60
2021/09/09 02:37:12;;;;;;;10.00;8.70;;;10.00;99.90;;;10.65;100.00;94930.00;2401152;55;34379;-60
2021/09/09 02:39:58;;;;;;;10.63;9.53;;;10.00;99.90;;;10.48;100.00;94952.00;2388925;56;26669;-61
2021/09/09 02:42:46;;;;;;;10.50;8.67;;;9.90;99.90;;;10.45;100.00;94956.00;2172164;56;26725;-62
2021/09/09 02:45:32;;;;;;;8.87;7.93;;;9.90;99.90;;;10.41;100.00;94955.00;2386653;56;27172;-61
2021/09/09 02:48:19;;;;;;;9.80;8.40;;;9.90;99.90;;;10.40;100.00;94946.00;2162777;56;26636;-60
2021/09/09 02:51:05;;;;;;;10.47;8.40;;;9.90;99.90;;;10.47;100.00;94950.00;2330488;57;27306;-60
2021/09/09 02:53:51;;;;;;;10.37;8.17;;;10.00;99.90;;;10.60;100.00;94944.00;2127442;57;26732;-60
2021/09/09 02:59:34;;;;;;;10.33;8.30;;;10.10;99.90;;;10.71;100.00;94928.00;2427634;54;33190;-61
2021/09/09 03:02:20;;;;;;;9.23;8.17;;;10.00;99.90;;;10.51;100.00;94941.00;2416346;55;26872;-60
2021/09/09 03:08:06;;;;;;;10.27;8.13;;;10.00;99.90;;;10.57;100.00;94916.00;2398674;55;33896;-60
2021/09/09 03:10:53;;;;;;;9.63;7.90;;;10.10;99.90;;;10.64;100.00;94928.00;2172131;56;27266;-60
2021/09/09 03:13:39;;;;;;;10.33;8.70;;;10.20;99.90;;;10.77;100.00;94924.00;2403088;56;27172;-62
2021/09/09 03:16:26;;;;;;;10.30;8.50;;;10.30;99.90;;;10.78;100.00;94921.00;2181736;56;26715;-59
2021/09/09 03:19:13;;;;;;;10.90;8.00;;;10.20;99.90;;;10.78;100.00;94924.00;2390076;56;26693;-60
2021/09/09 03:24:56;;;;;;;9.50;7.87;;;10.20;99.90;;;10.83;100.00;94907.00;2399600;54;34347;-60
2021/09/09 03:27:43;;;;;;;7.97;7.17;;;10.20;99.90;;;10.67;100.00;94921.00;2194415;56;26969;-60
2021/09/09 03:30:30;;;;;;;8.87;7.27;;;10.10;99.90;;;10.63;100.00;94924.00;2427240;55;26954;-60
2021/09/09 03:33:16;;;;;;;8.83;7.57;;;10.10;99.90;;;10.66;100.00;94913.00;2206402;56;26708;-60
2021/09/09 03:36:04;;;;;;;7.90;7.10;;;10.10;99.90;;;10.61;100.00;94906.00;2434836;55;26971;-61
2021/09/09 03:38:50;;;;;;;8.20;7.00;;;10.10;99.90;;;10.65;100.00;94906.00;2207819;54;26569;-60
2021/09/09 03:41:37;;;;;;;8.83;6.70;;;10.10;99.90;;;10.59;100.00;94914.00;2210705;55;26731;-60
2021/09/09 03:44:23;;;;;;;8.37;6.87;;;10.10;99.90;;;10.63;100.00;94907.00;2211480;55;26123;-60
2021/09/09 03:47:10;;;;;;;7.70;6.90;;;10.00;99.90;;;10.54;100.00;94906.00;2211647;55;26776;-61
2021/09/09 03:49:56;;;;;;;7.70;6.60;;;10.00;99.90;;;10.51;100.00;94909.00;2234461;55;26728;-60
2021/09/09 03:52:42;;;;;;;7.60;6.80;;;9.90;99.90;;;10.39;100.00;94911.00;2237447;55;27073;-61
2021/09/09 03:55:29;;;;;;;8.23;7.33;;;9.90;99.90;;;10.35;100.00;94909.00;2236965;55;26652;-60
2021/09/09 04:01:13;;;;;;;7.93;7.13;;;9.80;99.90;;;10.36;100.00;94900.00;2413187;54;33560;-60
2021/09/09 04:03:59;;;;;;;9.00;7.57;;;9.70;99.90;;;10.21;100.00;94915.00;2162498;57;26667;-60
2021/09/09 04:06:46;;;;;;;7.80;6.93;;;9.70;99.90;;;10.20;100.00;94911.00;2402693;56;27533;-60
2021/09/09 04:09:32;;;;;;;9.80;7.07;;;9.60;99.90;;;10.21;100.00;94913.00;2187614;57;26735;-60
2021/09/09 04:12:19;;;;;;;8.40;6.90;;;9.60;99.90;;;10.13;100.00;94916.00;2405678;56;26783;-60
2021/09/09 04:15:08;;;;;;;7.70;6.97;;;9.60;99.90;;;10.07;100.00;94912.00;2187538;57;26655;-62
2021/09/09 04:17:55;;;;;;;7.20;6.43;;;9.60;99.90;;;10.08;100.00;94919.00;2402900;56;26746;-60
2021/09/09 04:20:41;;;;;;;8.70;6.87;;;9.50;99.90;;;9.88;100.00;94917.00;2186161;57;26847;-60
2021/09/09 04:23:28;;;;;;;6.83;6.13;;;9.40;99.90;;;9.83;100.00;94919.00;2187255;57;26830;-60
2021/09/09 04:26:14;;;;;;;8.27;7.13;;;9.40;99.90;;;9.99;100.00;94912.00;2401352;56;26301;-61
2021/09/09 04:29:00;;;;;;;10.50;7.00;;;9.30;99.90;;;9.84;100.00;94920.00;2188548;57;27171;-61
2021/09/09 04:31:47;;;;;;;7.23;6.53;;;9.30;99.90;;;9.74;100.00;94917.00;2401997;56;27420;-61
2021/09/09 04:37:31;;;;;;;7.10;6.40;;;9.30;99.90;;;9.98;100.00;94907.00;2440990;54;33175;-61
2021/09/09 04:40:17;;;;;;;7.20;6.20;;;9.40;99.90;;;9.94;100.00;94924.00;2452329;54;26098;-61
2021/09/09 04:43:04;;;;;;;8.77;6.73;;;9.30;99.90;;;9.86;100.00;94929.00;2497398;54;26087;-60
2021/09/09 04:45:51;;;;;;;10.40;6.93;;;9.30;99.90;;;9.89;100.00;94926.00;2263587;55;27113;-60
2021/09/09 04:48:38;;;;;;;6.67;5.97;;;9.30;99.90;;;9.90;100.00;94928.00;2497897;54;27135;-61
2021/09/09 04:51:25;;;;;;;8.70;6.63;;;9.20;99.90;;;9.80;100.00;94925.00;2261374;55;26215;-61
2021/09/09 04:54:11;;;;;;;6.77;6.07;;;9.20;99.90;;;9.70;100.00;94919.00;2263156;55;27224;-60
2021/09/09 04:56:58;;;;;;;6.60;5.90;;;9.20;99.90;;;9.78;100.00;94927.00;2260976;55;27381;-60
2021/09/09 04:59:44;;;;;;;8.47;6.30;;;9.30;99.90;;;9.85;100.00;94917.00;2262541;55;26718;-60
2021/09/09 05:08:24;;;;;;;9.27;6.97;;;9.20;99.90;;;9.85;100.00;94907.00;2411331;54;33647;-60
2021/09/09 05:11:11;;;;;;;10.07;6.33;;;9.20;99.90;;;9.81;100.00;94924.00;2189862;56;26730;-64
2021/09/09 05:13:58;;;;;;;6.73;6.03;;;9.20;99.90;;;9.83;100.00;94922.00;2185057;57;27788;-61
2021/09/09 05:16:44;;;;;;;8.30;6.80;;;9.30;99.90;;;10.01;100.00;94927.00;2405803;55;27765;-61
2021/09/09 05:19:33;;;;;;;8.70;6.53;;;9.50;99.90;;;10.15;100.00;94926.00;2190963;56;26967;-61
2021/09/09 05:22:19;;;;;;;9.00;6.80;;;9.60;99.90;;;10.27;100.00;94925.00;2189586;56;26862;-61
2021/09/09 05:25:08;;;;;;;7.57;6.83;;;9.80;99.90;;;10.47;100.00;94921.00;2190743;56;26916;-61
2021/09/09 05:27:54;;;;;;;7.43;6.30;;;10.00;99.90;;;10.69;100.00;94931.00;2189171;56;27436;-60
2021/09/09 05:30:41;;;;;;;8.57;6.93;;;10.10;99.90;;;10.86;100.00;94928.00;2189884;56;26712;-60
2021/09/09 05:33:27;;;;;;;8.27;6.33;;;10.30;99.90;;;11.05;100.00;94925.00;2192646;56;26666;-61
2021/09/09 05:36:16;;;;;;;7.47;6.30;;;10.40;99.90;;;11.13;100.00;94923.00;2403052;56;27154;-61
2021/09/09 05:39:02;;;;;;;7.67;5.70;;;10.50;99.90;;;11.11;100.00;94919.00;2183893;56;26814;-60
2021/09/09 05:41:48;;;;;;;7.50;6.57;;;10.50;99.90;;;11.19;100.00;94921.00;2416556;55;26634;-60
2021/09/09 05:44:35;;;;;;;6.73;5.90;;;10.50;99.90;;;11.25;100.00;94929.00;2208497;56;26753;-61
2021/09/09 05:47:21;;;;;;;6.40;5.77;;;10.60;99.90;;;11.27;100.00;94921.00;2212565;56;26187;-61
2021/09/09 05:50:10;;;;;;;6.90;6.13;;;10.70;99.90;;;11.39;100.00;94922.00;2188144;57;26616;-60
2021/09/09 05:52:57;;;;;;;7.17;6.30;;;10.80;99.90;;;11.51;100.00;94920.00;2187115;57;26762;-61
2021/09/09 05:55:43;;;;;;;7.00;6.30;;;10.90;99.90;;;11.62;100.00;94920.00;2187023;57;26759;-60
2021/09/09 05:58:30;;;;;;;7.03;6.33;;;11.00;99.90;;;11.83;100.00;94927.00;2186587;57;27084;-60
2021/09/09 06:04:14;;;;;;;7.63;6.37;;;11.30;99.90;;;12.15;100.00;94913.00;2423584;55;33794;-61
2021/09/09 06:07:02;;;;;;;6.83;5.97;;;11.40;99.90;;;12.12;100.00;94930.00;2211713;55;26899;-61
2021/09/09 06:09:48;;;;;;;8.23;6.10;;;11.50;99.90;;;12.20;100.00;94930.00;2211616;56;27718;-61
2021/09/09 06:12:34;;;;;;;7.60;6.17;;;11.60;99.90;;;12.28;100.00;94925.00;2213382;56;28143;-61
2021/09/09 06:15:21;;;;;;;8.97;6.90;;;11.60;99.90;;;12.35;100.00;94925.00;2211560;56;26743;-61
2021/09/09 06:21:06;;;;;;;6.57;5.97;;;11.80;99.90;;;12.70;100.00;94924.00;2373639;55;34216;-61
2021/09/09 06:23:52;;;;;;;6.05;5.45;;;12.00;99.90;;;12.68;100.00;94931.00;2182040;55;27258;-60
2021/09/09 06:26:39;;;;;;;7.50;6.70;;;12.10;99.90;;;12.82;100.00;94933.00;2186639;56;26778;-61
2021/09/09 06:32:21;;;;;;;6.57;5.97;;;12.30;99.90;;;13.21;100.00;94916.00;2405445;55;34580;-62
2021/09/09 06:38:04;;;;;;;9.23;7.03;;;12.40;99.90;;;13.42;100.00;94913.00;2406005;55;33766;-61
2021/09/09 06:40:50;;;;;;;7.30;6.53;;;12.70;99.90;;;13.46;100.00;94931.00;2403125;55;27401;-61
2021/09/09 06:43:36;;;;;;;9.30;6.23;;;12.80;99.90;;;13.52;100.00;94932.00;2378918;55;26134;-62
2021/09/09 06:46:23;;;;;;;8.70;6.73;;;12.90;99.90;;;13.64;100.00;94930.00;2172202;56;26662;-61
2021/09/09 06:49:10;;;;;;;7.40;6.70;;;13.40;99.90;;;14.40;100.00;94935.00;2419256;55;27242;-62
2021/09/09 06:51:56;;;;;;;6.95;6.30;;;14.20;99.90;;;15.72;100.00;94930.00;2208294;56;27338;-61
2021/09/09 06:54:42;;;;;;;7.65;6.57;;;16.00;99.90;;;18.52;100.00;94917.00;2430757;55;26812;-62
2021/09/09 07:00:25;;;;;;;7.78;5.60;;;18.00;99.90;;;23.22;100.00;94914.00;2443268;54;34403;-61
2021/09/09 07:03:12;;;;;;;6.40;5.80;;;21.40;99.90;;;24.23;100.00;94917.00;2196945;55;26920;-62
2021/09/09 07:05:58;;;;;;;6.37;5.78;;;22.40;99.90;;;25.45;100.00;94922.00;2400571;56;26672;-62
2021/09/09 07:11:42;;;;;;;6.55;4.93;;;23.50;99.90;;;26.83;100.00;94917.00;2395602;55;34387;-61
2021/09/09 07:14:28;;;;;;;5.12;4.62;;;24.00;99.90;;;27.08;100.00;94925.00;2174336;56;26694;-61
2021/09/09 07:17:14;;;;;;;7.00;5.20;;;24.40;99.90;;;27.90;100.00;94926.00;2400935;56;26660;-60
2021/09/09 07:22:58;;;;;;;5.57;4.97;;;25.40;99.90;;;29.38;98.02;94917.00;2479059;52;33207;-61
2021/09/09 07:25:44;;;;;;;5.05;4.55;;;26.00;99.90;;;29.05;100.00;94928.00;2258824;53;26813;-61
2021/09/09 07:28:31;;;;;;;5.75;4.70;;;25.90;99.90;;;29.01;98.26;94927.00;2241550;54;26706;-61
2021/09/09 07:31:17;;;;;;;5.37;4.93;;;26.10;99.90;;;29.10;99.20;94928.00;2242905;54;27212;-60
2021/09/09 07:34:04;;;;;;;7.07;5.03;;;26.20;99.90;;;29.44;98.11;94921.00;2241541;54;26708;-60
2021/09/09 07:36:53;;;;;;;5.28;4.78;;;26.50;99.90;;;29.72;93.72;94929.00;2465070;54;26735;-60
2021/09/09 07:39:41;;;;;;;5.87;5.28;;;26.80;99.90;;;30.08;91.39;94924.00;2232350;54;25074;-60
2021/09/09 07:42:27;;;;;;;5.30;4.90;;;27.10;99.90;;;29.84;95.19;94930.00;2470367;54;26923;-60
2021/09/09 07:48:11;;;;;;;5.90;5.28;;;27.60;99.90;;;30.06;95.86;94926.00;2372968;56;34183;-60
2021/09/09 07:50:58;;;;;;;6.32;5.30;;;27.40;99.90;;;29.18;88.22;94925.00;2341892;57;27020;-60
2021/09/09 07:53:44;;;;;;;8.18;5.53;;;27.60;99.90;;;29.62;91.14;94921.00;2130440;57;25742;-60
2021/09/09 07:59:28;;;;;;;8.27;5.90;;;28.30;99.90;;;31.20;80.67;94930.00;2422344;54;32599;-61
2021/09/09 08:02:15;;;;;;;6.25;5.60;;;28.60;99.90;;;32.05;69.35;94923.00;2163751;57;26856;-59
2021/09/09 08:05:03;;;;;;;6.40;5.80;;;28.80;99.90;;;31.67;73.63;94931.00;2160479;56;25881;-59
2021/09/09 08:07:49;;;;;;;7.70;5.70;;;28.50;99.90;;;31.43;74.10;94926.00;2370958;56;25633;-59
2021/09/09 08:10:36;;;;;;;6.20;5.35;;;28.90;99.90;;;31.29;69.46;94939.00;2159714;56;26995;-59
2021/09/09 08:16:18;;;;;;;5.28;4.78;;;28.20;99.90;;;31.82;67.66;94938.00;2471561;52;32568;-59
2021/09/09 08:19:05;;;;;;;6.25;5.43;;;28.40;99.90;;;31.54;64.05;94941.00;2224003;54;25082;-60
2021/09/09 08:21:52;;;;;;;6.10;5.50;;;28.90;99.90;;;31.98;61.03;94939.00;2231454;55;25154;-60
2021/09/09 08:24:38;;;;;;;5.30;4.90;;;28.70;99.90;;;31.55;61.31;94942.00;2447207;54;25702;-60
2021/09/09 08:30:21;;;;;;;5.47;5.03;;;28.90;99.90;;;33.40;56.43;94942.00;2353908;56;33907;-60
2021/09/09 08:33:07;;;;;;;6.00;5.43;;;30.20;99.90;;;32.81;54.41;94943.00;2282856;57;25847;-61
2021/09/09 08:38:52;;;;;;;5.37;4.85;;;30.70;99.90;;;34.35;50.08;94946.00;2462216;54;32721;-58
2021/09/09 08:41:40;;;;;;;5.62;5.12;;;30.80;99.90;;;33.52;56.38;94948.00;2207299;55;25843;-58
2021/09/09 08:44:27;;;;;;;5.30;4.90;;;30.90;99.90;;;34.69;47.61;94949.00;2442342;54;25722;-58
2021/09/09 08:50:12;;;;;;;5.57;5.07;;;31.60;99.90;;;35.49;49.40;94944.00;2392511;55;33424;-58
2021/09/09 08:55:56;;;;;;;5.18;4.65;;;31.60;99.90;;;35.80;44.12;94939.00;2369971;56;32907;-58
2021/09/09 08:58:43;;;;;;;6.20;5.00;;;31.40;99.90;;;34.70;42.60;94945.00;2307930;58;25145;-59
2021/09/09 09:01:29;;;;;;;5.10;4.60;;;31.30;99.90;;;35.32;47.08;94942.00;2099213;58;25763;-57
2021/09/09 09:04:16;;;;;;;6.50;4.85;;;31.40;99.90;;;34.89;41.42;94943.00;2301173;58;25632;-58
2021/09/09 09:07:04;;;;;;;6.20;4.85;;;31.50;99.90;;;35.43;42.13;94945.00;2108270;58;26128;-58
2021/09/09 09:10:03;;;;;;;5.75;5.25;;;31.00;99.90;;;34.33;43.53;94946.00;2325017;58;25730;-58
2021/09/09 09:12:49;;;;;;;6.15;5.15;;;31.20;99.90;;;35.32;41.55;94945.00;2341848;57;25667;-58
2021/09/09 09:18:31;;;;;;;5.37;4.87;;;32.00;99.90;;;36.54;40.33;94952.00;2419799;54;32697;-58
2021/09/09 09:24:19;;;;;;;5.12;4.62;;;32.90;99.90;;;35.95;36.37;94941.00;2436376;54;33399;-58
2021/09/09 09:27:10;;;;;;;5.53;4.40;;;32.40;99.90;;;36.12;38.29;94948.00;2193002;55;26287;-58
2021/09/09 09:30:04;;;;;;;5.28;4.87;;;32.70;99.90;;;36.67;38.56;94951.00;2231562;55;25889;-59
2021/09/09 09:32:52;;;;;;;6.30;4.95;;;32.00;99.90;;;35.85;37.80;94939.00;2464135;55;25228;-58
2021/09/09 09:35:38;;;;;;;5.32;4.80;;;32.20;99.90;;;36.56;39.39;94952.00;2233876;55;25204;-58
2021/09/09 09:38:24;;;;;;;5.22;4.82;;;33.00;99.90;;;37.02;34.99;94938.00;2235638;55;26208;-58
2021/09/09 09:41:11;;;;;;;5.57;5.12;;;33.30;99.90;;;37.48;37.80;94942.00;2235028;55;25085;-58
2021/09/09 09:47:09;;;;;;;5.03;4.60;;;32.90;99.90;;;36.77;36.69;94934.00;2383728;56;33251;-58
2021/09/09 09:49:55;;;;;;;5.15;4.68;;;32.70;99.90;;;36.36;36.88;94937.00;2149993;57;25958;-58
2021/09/09 09:52:41;;;;;;;4.72;4.32;;;32.40;99.90;;;35.83;37.25;94938.00;2153508;57;26178;-58
2021/09/09 09:58:38;;;;;;;6.37;4.37;;;30.70;99.90;;;33.39;42.45;94935.00;2397503;55;32744;-60
2021/09/09 10:01:24;;;;;;;5.40;4.90;;;31.10;99.90;;;34.41;42.47;94936.00;2382500;55;26353;-61
2021/09/09 10:04:14;;;;;;;5.28;4.70;;;31.30;99.90;;;34.73;39.92;94941.00;2369800;56;25092;-60
2021/09/09 10:07:00;;;;;;;5.78;4.72;;;31.50;99.90;;;34.63;41.11;94945.00;2370996;56;25918;-60
2021/09/09 10:09:47;;;;;;;5.30;4.87;;;32.20;99.90;;;36.03;40.43;94940.00;2369588;56;25702;-58
2021/09/09 10:12:34;;;;;;;5.80;5.20;;;32.90;99.90;;;37.22;38.08;94937.00;2156458;57;25850;-58
2021/09/09 10:15:22;;;;;;;5.35;4.90;;;33.60;99.90;;;38.87;39.66;94942.00;2368762;56;25563;-58
2021/09/09 10:18:09;;;;;;;6.00;5.50;;;34.90;99.90;;;39.12;32.75;94941.00;2159483;57;25107;-60
2021/09/09 10:20:56;;;;;;;5.60;5.10;;;32.70;99.90;;;34.62;39.45;94928.00;2371333;56;26217;-58
2021/09/09 10:23:42;;;;;;;6.15;5.00;;;31.50;99.90;;;34.40;38.78;94929.00;2159595;57;26886;-58
2021/09/09 10:26:29;;;;;;;5.80;5.20;;;31.50;99.90;;;34.47;40.30;94933.00;2370097;56;26125;-58
2021/09/09 10:32:57;;;;;;;5.55;5.05;;;32.80;99.90;;;37.56;40.40;94924.00;2403656;55;32806;-60
2021/09/09 10:35:43;;;;;;;5.28;4.80;;;33.20;99.90;;;37.47;38.56;94926.00;2344327;56;25828;-58
2021/09/09 10:41:29;;;;;;;5.30;4.43;;;33.70;99.90;;;39.17;34.93;94921.00;2429727;55;33616;-58
2021/09/09 10:44:16;;;;;;;4.97;4.50;;;34.30;99.90;;;38.11;35.60;94924.00;2202730;56;26077;-58
2021/09/09 10:47:19;;;;;;;5.20;4.70;;;34.20;99.90;;;37.46;35.21;94914.00;2395440;55;25633;-58
2021/09/09 10:50:12;;;;;;;5.37;4.78;;;33.00;99.90;;;36.97;36.72;94919.00;2416343;55;25610;-59
2021/09/09 10:53:03;;;;;;;5.07;4.60;;;33.50;99.90;;;36.57;35.94;94910.00;2195918;55;25685;-58
2021/09/09 10:55:50;;;;;;;5.90;5.12;;;33.30;99.90;;;36.91;37.63;94914.00;2173484;56;25682;-58
2021/09/09 10:58:37;;;;;;;5.70;5.10;;;34.20;99.90;;;38.67;38.90;94916.00;2181324;56;25686;-58
2021/09/09 11:04:31;;;;;;;5.25;4.75;;;34.60;99.90;;;39.85;33.94;94907.00;2406095;55;33372;-58
2021/09/09 11:10:17;;;;;;;8.88;4.95;;;34.90;99.90;;;38.88;35.61;94911.00;2503891;52;32509;-59
2021/09/09 11:13:03;;;;;;;6.00;4.97;;;34.40;99.90;;;38.25;38.20;94912.00;2426260;54;25622;-58
2021/09/09 11:15:49;;;;;;;6.28;4.85;;;34.50;99.90;;;38.70;38.70;94907.00;2198376;54;26688;-58
2021/09/09 11:18:36;;;;;;;5.43;4.93;;;34.30;99.90;;;37.25;36.01;94897.00;2420694;54;26966;-58
2021/09/09 11:21:24;;;;;;;5.43;4.93;;;33.10;99.90;;;35.87;39.49;94898.00;2200194;54;25599;-57
2021/09/09 11:24:13;;;;;;;5.55;5.05;;;32.50;99.90;;;34.30;41.58;94903.00;2422528;54;25656;-58
2021/09/09 11:27:00;;;;;;;7.55;5.50;;;31.90;99.90;;;33.93;43.69;94896.00;2201529;54;27526;-58
2021/09/09 11:29:56;;;;;;;6.00;5.05;;;31.60;99.90;;;33.56;43.97;94897.00;2435787;54;26151;-58
2021/09/09 11:33:02;;;;;;;6.20;5.00;;;31.80;99.90;;;33.48;46.61;94904.00;2422402;54;25808;-58
2021/09/09 11:36:04;;;;;;;7.37;5.28;;;31.90;99.90;;;33.79;46.02;94899.00;2422658;54;25730;-58
2021/09/09 11:38:51;;;;;;;5.28;4.78;;;32.30;99.90;;;33.98;50.90;94901.00;2197573;54;25538;-58
2021/09/09 11:41:40;;;;;;;5.97;4.80;;;32.20;99.90;;;33.48;49.32;94901.00;2427746;54;26006;-58
2021/09/09 11:44:30;;;;;;;5.15;4.65;;;32.90;99.90;;;34.32;54.89;94901.00;2210318;54;26294;-58
2021/09/09 11:47:18;;;;;;;5.18;4.32;;;33.50;99.90;;;34.64;44.25;94894.00;2206022;54;25647;-58
2021/09/09 11:50:08;;;;;;;5.00;4.50;;;33.30;99.90;;;34.22;44.70;94891.00;2187820;55;26618;-58
2021/09/09 11:55:58;;;;;;;6.07;4.53;;;33.50;99.90;;;33.76;49.89;94890.00;2424354;54;32669;-60
2021/09/09 11:58:44;;;;;;;8.07;4.57;;;33.30;99.90;;;33.65;46.94;94895.00;2190446;56;26250;-60
2021/09/09 12:01:33;;;;;;;4.03;3.62;;;33.10;99.90;;;33.61;48.63;94892.00;2434696;54;25677;-60
2021/09/09 12:04:21;;;;;;;5.00;4.43;;;32.00;99.90;;;32.73;54.22;94886.00;2206729;56;27032;-61
2021/09/09 12:07:09;;;;;;;4.65;4.12;;;31.10;99.90;;;31.56;50.60;94881.00;2431738;55;26889;-60
2021/09/09 12:12:59;;;;;;;4.85;3.97;;;29.70;99.90;;;30.54;57.11;94882.00;2362474;54;33312;-59
2021/09/09 12:15:45;;;;;;;4.25;3.85;;;29.40;99.90;;;30.08;65.97;94881.00;2369986;56;25748;-61
2021/09/09 12:18:32;;;;;;;6.93;4.00;;;29.40;99.90;;;30.34;70.14;94885.00;2162166;56;27303;-59
2021/09/09 12:21:21;;;;;;;6.25;4.25;;;29.00;99.90;;;29.78;73.29;94888.00;2374878;55;25808;-60
2021/09/09 12:24:11;;;;;;;4.05;3.65;;;28.50;99.90;;;29.11;74.00;94886.00;2187290;56;27540;-60
2021/09/09 12:27:04;;;;;;;4.37;4.03;;;28.20;99.90;;;28.86;79.38;94882.00;2389521;55;27358;-59
2021/09/09 12:29:52;;;;;;;5.37;3.80;;;27.50;99.90;;;28.29;80.56;94880.00;2399943;55;26950;-59
2021/09/09 12:35:58;;;;;;;6.68;4.22;;;26.60;99.90;;;27.52;93.64;94875.00;2383804;55;33839;-59
2021/09/09 12:38:56;;;;;;;5.53;4.50;;;26.20;99.90;;;26.90;97.99;94884.00;2358816;57;26644;-59
2021/09/09 12:41:42;;;;;;;9.88;4.25;;;25.90;99.90;;;26.75;100.00;94888.00;2364416;57;26193;-59
2021/09/09 12:47:34;;;;;;;4.90;3.72;;;25.10;99.90;;;25.86;100.00;94891.00;2340547;56;35092;-59
2021/09/09 12:50:34;;;;;;;4.70;4.20;;;24.90;99.90;;;25.66;100.00;94888.00;2121479;57;26604;-60
2021/09/09 12:53:21;;;;;;;5.43;4.32;;;24.90;99.90;;;25.78;100.00;94894.00;2134146;58;26209;-59
2021/09/09 12:59:06;;;;;;;4.87;3.83;;;24.80;99.90;;;25.78;100.00;94892.00;2387135;54;34229;-59
2021/09/09 13:01:53;;;;;;;4.10;3.70;;;25.20;99.90;;;26.07;100.00;94890.00;2176172;56;27479;-59
2021/09/09 13:04:40;;;;;;;4.90;3.70;;;25.70;99.90;;;26.73;100.00;94887.00;2390600;55;26650;-59
2021/09/09 13:07:26;;;;;;;4.85;3.60;;;26.20;99.90;;;27.25;100.00;94890.00;2199650;56;28018;-59
2021/09/09 13:10:13;;;;;;;5.53;3.92;;;26.60;99.90;;;27.59;100.00;94890.00;2431064;55;26949;-59
2021/09/09 13:12:59;;;;;;;4.80;3.70;;;26.90;99.90;;;28.02;100.00;94894.00;2208786;57;26124;-60
2021/09/09 13:15:49;;;;;;;3.95;3.65;;;26.80;99.90;;;27.78;100.00;94897.00;2431363;55;26837;-59
2021/09/09 13:18:35;;;;;;;4.00;3.60;;;26.40;99.90;;;27.37;99.51;94889.00;2208610;57;26594;-59
2021/09/09 13:21:28;;;;;;;4.25;3.55;;;26.60;99.90;;;27.48;100.00;94896.00;2210722;57;26189;-59
2021/09/09 13:24:14;;;;;;;7.18;4.15;;;27.00;99.90;;;28.02;100.00;94888.00;2208166;56;26195;-60
2021/09/09 13:32:54;;;;;;;5.05;3.37;;;27.10;99.90;;;27.52;84.53;94882.00;2512808;53;33951;-61
2021/09/09 13:35:41;;;;;;;4.10;3.70;;;26.80;99.90;;;27.27;83.58;94888.00;2468918;54;26640;-61
2021/09/09 13:38:28;;;;;;;4.35;3.87;;;26.60;99.90;;;27.06;87.47;94878.00;2211971;55;26831;-60
2021/09/09 13:41:15;;;;;;;3.78;3.40;;;26.50;99.90;;;27.12;96.51;94877.00;2192962;56;26791;-60
2021/09/09 13:46:57;;;;;;;4.00;3.40;;;26.70;99.90;;;27.58;96.23;94858.00;2414807;54;34355;-61
2021/09/09 13:52:41;;;;;;;5.30;3.87;;;26.90;99.90;;;27.70;81.57;94859.00;2398000;54;33943;-60
2021/09/09 13:58:23;;;;;;;5.03;3.78;;;26.80;99.90;;;27.21;79.00;94865.00;2397927;55;33332;-60
2021/09/09 14:01:11;;;;;;;5.18;3.95;;;26.30;99.90;;;26.93;78.53;94857.00;2173847;56;26118;-60
2021/09/09 14:03:58;;;;;;;6.50;3.97;;;26.10;99.90;;;26.75;84.30;94850.00;2404569;55;26729;-60
2021/09/09 14:06:44;;;;;;;4.45;4.05;;;26.00;99.90;;;26.66;84.89;94853.00;2186385;56;26807;-60